createdAt,value
2023-11-01T06:00:58.466Z,91.06
2023-11-01T06:01:58.403Z,91.06
2023-11-01T06:02:58.506Z,90.35
2023-11-01T06:03:58.432Z,90.35
2023-11-01T06:04:58.370Z,90.35
2023-11-01T06:05:58.383Z,90.75
2023-11-01T06:06:58.353Z,90.55
2023-11-01T06:07:58.314Z,90.55
2023-11-01T06:08:58.298Z,90.66
2023-11-01T06:09:58.304Z,90.45
2023-11-01T06:10:58.286Z,90.66
2023-11-01T06:12:03.287Z,90.55
2023-11-01T06:12:58.254Z,90.86
2023-11-01T06:13:58.242Z,90.14
2023-11-01T06:14:58.265Z,90.14
2023-11-01T06:15:58.228Z,90.14
2023-11-01T06:16:58.263Z,89.73
2023-11-01T06:17:58.246Z,90.04
2023-11-01T06:18:58.186Z,89.63
2023-11-01T06:19:58.190Z,89.73
2023-11-01T06:20:58.196Z,89.84
2023-11-01T06:21:58.153Z,89.84
2023-11-01T06:23:03.165Z,89.73
2023-11-01T06:23:58.128Z,89.63
2023-11-01T06:24:58.132Z,89.53
2023-11-01T06:25:58.107Z,89.43
2023-11-01T06:26:58.113Z,89.63
2023-11-01T06:27:58.085Z,89.28
2023-11-01T06:28:58.078Z,89.23
2023-11-01T06:29:58.073Z,89.32
2023-11-01T06:30:58.058Z,89.43
2023-11-01T06:31:58.065Z,89.73
2023-11-01T06:32:58.236Z,89.32
2023-11-01T06:34:03.161Z,89.73
2023-11-01T06:34:58.033Z,90.14
2023-11-01T06:35:58.016Z,89.84
2023-11-01T06:36:57.988Z,89.63
2023-11-01T06:37:57.974Z,90.04
2023-11-01T06:38:58.004Z,90.04
2023-11-01T06:39:57.982Z,90.04
2023-11-01T06:40:57.943Z,89.84
2023-11-01T06:41:57.965Z,90.55
2023-11-01T06:42:57.919Z,90.66
2023-11-01T06:43:57.929Z,90.66
2023-11-01T06:45:02.972Z,90.45
2023-11-01T06:45:57.890Z,90.35
2023-11-01T06:46:57.945Z,90.66
2023-11-01T06:47:57.969Z,90.66
2023-11-01T06:48:57.920Z,90.86
2023-11-01T06:49:57.856Z,90.35
2023-11-01T06:50:57.876Z,90.55
2023-11-01T06:51:57.832Z,90.55
2023-11-01T06:52:57.809Z,90.45
2023-11-01T06:53:57.870Z,90.14
2023-11-01T06:54:57.789Z,89.94
2023-11-01T06:56:02.796Z,89.94
2023-11-01T06:56:57.860Z,89.32
2023-11-01T06:57:57.779Z,89.23
2023-11-01T06:58:57.760Z,89.53
2023-11-01T06:59:57.816Z,88.98
2023-11-01T07:00:57.757Z,88.57
2023-11-01T07:01:57.714Z,88.71
2023-11-01T07:02:57.720Z,88.31
2023-11-01T07:03:57.789Z,88.26
2023-11-01T07:04:57.698Z,87.96
2023-11-01T07:05:57.715Z,88.17
2023-11-01T07:07:02.681Z,87.85
2023-11-01T07:07:57.646Z,87.29
2023-11-01T07:08:57.681Z,87.49
2023-11-01T07:09:57.629Z,87.35
2023-11-01T07:10:57.602Z,87.45
2023-11-01T07:11:57.647Z,87.24
2023-11-01T07:12:57.583Z,87.14
2023-11-01T07:13:57.583Z,86.98
2023-11-01T07:14:57.602Z,86.83
2023-11-01T07:15:57.616Z,86.83
2023-11-01T07:16:57.540Z,86.63
2023-11-01T07:18:02.659Z,87.04
2023-11-01T07:18:57.516Z,86.43
2023-11-01T07:19:57.535Z,86.53
2023-11-01T07:20:57.584Z,86.73
2023-11-01T07:21:57.512Z,86.73
2023-11-01T07:22:57.482Z,86.83
2023-11-01T07:23:57.474Z,86.63
2023-11-01T07:24:57.452Z,86.53
2023-11-01T07:25:57.449Z,86.83
2023-11-01T07:26:57.446Z,86.63
2023-11-01T07:27:57.441Z,86.33
2023-11-01T07:29:02.437Z,86.53
2023-11-01T07:29:57.471Z,86.88
2023-11-01T07:30:57.381Z,86.57
2023-11-01T07:31:57.384Z,86.73
2023-11-01T07:32:57.457Z,86.77
2023-11-01T07:33:57.377Z,86.73
2023-11-01T07:34:57.342Z,86.63
2023-11-01T07:35:57.358Z,86.88
2023-11-01T07:36:57.346Z,86.83
2023-11-01T07:37:57.316Z,86.67
2023-11-01T07:38:57.376Z,86.77
2023-11-01T07:40:02.389Z,86.53
2023-11-01T07:40:57.276Z,86.12
2023-11-01T07:41:57.306Z,86.33
2023-11-01T07:42:57.253Z,86.02
2023-11-01T07:43:57.238Z,85.92
2023-11-01T07:44:57.256Z,85.92
2023-11-01T07:45:57.286Z,85.98
2023-11-01T07:46:57.219Z,85.98
2023-11-01T07:47:57.313Z,85.57
2023-11-01T07:48:57.189Z,85.37
2023-11-01T07:49:57.188Z,85.37
2023-11-01T07:51:02.209Z,85.37
2023-11-01T07:51:57.177Z,85.27
2023-11-01T07:52:57.159Z,85.16
2023-11-01T07:53:57.152Z,85.16
2023-11-01T07:54:57.119Z,85.16
2023-11-01T07:55:57.112Z,84.66
2023-11-01T07:56:57.159Z,84.82
2023-11-01T07:57:57.109Z,84.86
2023-11-01T07:58:57.068Z,84.82
2023-11-01T07:59:57.118Z,84.82
2023-11-01T08:00:57.060Z,84.92
2023-11-01T08:02:02.429Z,84.51
2023-11-01T08:02:57.171Z,84.00
2023-11-01T08:03:57.199Z,83.80
2023-11-01T08:04:57.020Z,84.41
2023-11-01T08:05:57.045Z,83.59
2023-11-01T08:06:56.986Z,83.70
2023-11-01T08:07:56.972Z,82.98
2023-11-01T08:08:57.000Z,83.39
2023-11-01T08:09:57.003Z,83.49
2023-11-01T08:10:56.934Z,83.39
2023-11-01T08:11:56.975Z,83.18
2023-11-01T08:13:01.948Z,83.59
2023-11-01T08:13:56.907Z,83.09
2023-11-01T08:14:56.897Z,83.18
2023-11-01T08:15:56.947Z,83.49
2023-11-01T08:16:56.896Z,83.59
2023-11-01T08:17:56.909Z,82.47
2023-11-01T08:18:56.903Z,82.47
2023-11-01T08:19:56.842Z,81.86
2023-11-01T08:20:56.831Z,82.47
2023-11-01T08:21:56.884Z,82.37
2023-11-01T08:22:56.813Z,81.66
2023-11-01T08:24:01.843Z,82.03
2023-11-01T08:24:56.792Z,81.93
2023-11-01T08:25:56.768Z,81.52
2023-11-01T08:26:56.769Z,81.31
2023-11-01T08:27:56.763Z,81.11
2023-11-01T08:28:56.748Z,80.40
2023-11-01T08:29:56.755Z,80.40
2023-11-01T08:30:56.717Z,80.50
2023-11-01T08:31:56.735Z,80.56
2023-11-01T08:32:56.885Z,80.56
2023-11-01T08:33:56.800Z,80.26
2023-11-01T08:35:01.695Z,79.75
2023-11-01T08:35:56.689Z,79.64
2023-11-01T08:36:56.642Z,79.75
2023-11-01T08:37:56.630Z,79.91
2023-11-01T08:38:56.657Z,79.91
2023-11-01T08:39:56.631Z,78.66
2023-11-01T08:40:56.616Z,77.81
2023-11-01T08:41:56.597Z,76.86
2023-11-01T08:42:56.574Z,76.01
2023-11-01T08:43:56.619Z,75.36
2023-11-01T08:44:56.573Z,73.90
2023-11-01T08:46:01.687Z,74.27
2023-11-01T08:46:56.530Z,73.60
2023-11-01T08:47:56.562Z,74.55
2023-11-01T08:48:56.517Z,74.48
2023-11-01T08:49:56.502Z,75.60
2023-11-01T08:50:56.505Z,75.53
2023-11-01T08:51:56.513Z,75.84
2023-11-01T08:52:56.472Z,76.25
2023-11-01T08:53:56.473Z,75.53
2023-11-01T08:54:56.449Z,76.01
2023-11-01T08:55:56.454Z,74.68
2023-11-01T08:57:01.520Z,74.44
2023-11-01T08:57:56.447Z,74.24
2023-11-01T08:58:56.398Z,73.87
2023-11-01T08:59:56.434Z,74.38
2023-11-01T09:00:57.969Z,73.97
2023-11-01T09:02:05.129Z,74.14
2023-11-01T09:02:56.402Z,73.90
2023-11-01T09:03:56.471Z,72.89
2023-11-01T09:04:56.333Z,74.10
2023-11-01T09:05:56.368Z,72.48
2023-11-01T09:06:56.308Z,73.22
2023-11-01T09:08:01.348Z,73.60
2023-11-01T09:08:56.326Z,73.60
2023-11-01T09:09:59.408Z,73.29
2023-11-01T09:10:56.266Z,74.01
2023-11-01T09:11:56.314Z,73.70
2023-11-01T09:12:56.287Z,74.04
2023-11-01T09:13:56.231Z,73.94
2023-11-01T09:14:56.270Z,73.97
2023-11-01T09:15:56.235Z,74.38
2023-11-01T09:16:56.222Z,74.34
2023-11-01T09:17:56.246Z,74.38
2023-11-01T09:19:01.200Z,74.88
2023-11-01T09:19:56.201Z,74.34
2023-11-01T09:20:56.181Z,74.34
2023-11-01T09:21:56.158Z,74.14
2023-11-01T09:22:56.133Z,73.74
2023-11-01T09:23:56.148Z,73.63
2023-11-01T09:24:56.106Z,73.83
2023-11-01T09:25:56.103Z,74.04
2023-11-01T09:26:56.111Z,73.63
2023-11-01T09:27:56.119Z,73.90
2023-11-01T09:28:56.069Z,72.89
2023-11-01T09:30:01.104Z,72.58
2023-11-01T09:30:56.049Z,72.85
2023-11-01T09:31:56.041Z,72.04
2023-11-01T09:32:56.093Z,71.84
2023-11-01T09:33:56.127Z,72.25
2023-11-01T09:34:55.996Z,72.65
2023-11-01T09:35:56.256Z,72.52
2023-11-01T09:36:55.983Z,71.94
2023-11-01T09:37:55.964Z,72.45
2023-11-01T09:38:56.000Z,72.14
2023-11-01T09:39:55.955Z,72.04
2023-11-01T09:41:00.955Z,73.26
2023-11-01T09:41:55.978Z,72.99
2023-11-01T09:42:55.900Z,72.04
2023-11-01T09:43:55.911Z,73.77
2023-11-01T09:44:55.974Z,72.25
2023-11-01T09:45:55.892Z,73.80
2023-11-01T09:46:55.908Z,73.50
2023-11-01T09:47:55.932Z,74.21
2023-11-01T09:48:55.860Z,74.01
2023-11-01T09:49:55.876Z,73.90
2023-11-01T09:50:55.822Z,74.41
2023-11-01T09:52:00.904Z,74.44
2023-11-01T09:52:55.790Z,75.16
2023-11-01T09:53:55.825Z,75.02
2023-11-01T09:54:55.792Z,74.62
2023-11-01T09:55:55.760Z,74.62
2023-11-01T09:56:55.770Z,75.12
2023-11-01T09:57:55.745Z,75.22
2023-11-01T09:58:55.755Z,75.93
2023-11-01T09:59:55.769Z,75.22
2023-11-01T10:00:55.753Z,74.21
2023-11-01T10:01:55.687Z,73.70
2023-11-01T10:03:00.762Z,74.62
2023-11-01T10:03:55.696Z,74.92
2023-11-01T10:04:55.785Z,75.09
2023-11-01T10:05:55.691Z,74.48
2023-11-01T10:06:55.631Z,74.58
2023-11-01T10:07:55.631Z,74.48
2023-11-01T10:08:55.679Z,74.27
2023-11-01T10:09:55.637Z,73.83
2023-11-01T10:10:55.585Z,74.34
2023-11-01T10:11:55.597Z,73.83
2023-11-01T10:12:55.567Z,73.83
2023-11-01T10:14:00.588Z,74.24
2023-11-01T10:14:55.576Z,73.93
2023-11-01T10:15:55.592Z,73.73
2023-11-01T10:16:55.518Z,73.63
2023-11-01T10:17:55.581Z,73.19
2023-11-01T10:18:55.516Z,73.80
2023-11-01T10:19:55.494Z,73.53
2023-11-01T10:20:55.508Z,73.43
2023-11-01T10:21:55.505Z,74.24
2023-11-01T10:22:55.462Z,73.93
2023-11-01T10:23:55.501Z,73.63
2023-11-01T10:25:00.452Z,74.24
2023-11-01T10:25:55.422Z,73.53
2023-11-01T10:26:55.429Z,74.14
2023-11-01T10:27:55.454Z,72.31
2023-11-01T10:28:55.386Z,73.33
2023-11-01T10:29:55.421Z,73.63
2023-11-01T10:30:55.369Z,72.52
2023-11-01T10:31:55.381Z,73.09
2023-11-01T10:32:55.676Z,72.78
2023-11-01T10:33:55.497Z,72.08
2023-11-01T10:34:55.318Z,71.50
2023-11-01T10:36:00.355Z,70.18
2023-11-01T10:36:55.316Z,71.50
2023-11-01T10:37:55.305Z,71.47
2023-11-01T10:38:55.312Z,71.70
2023-11-01T10:39:55.290Z,70.79
2023-11-01T10:40:55.262Z,69.95
2023-11-01T10:41:55.387Z,70.35
2023-11-01T10:42:57.867Z,70.86
2023-11-01T10:43:55.247Z,70.79
2023-11-01T10:44:55.244Z,69.95
2023-11-01T10:45:55.264Z,70.56
2023-11-01T10:47:00.271Z,70.89
2023-11-01T10:47:55.262Z,70.76
2023-11-01T10:48:55.200Z,70.15
2023-11-01T10:49:55.176Z,70.05
2023-11-01T10:50:55.158Z,70.05
2023-11-01T10:51:55.185Z,70.45
2023-11-01T10:52:55.130Z,70.05
2023-11-01T10:53:55.181Z,70.52
2023-11-01T10:54:55.156Z,70.21
2023-11-01T10:55:55.101Z,70.32
2023-11-01T10:56:55.112Z,70.01
2023-11-01T10:58:00.135Z,69.61
2023-11-01T10:58:55.052Z,69.64
2023-11-01T10:59:55.089Z,69.74
2023-11-01T11:00:55.059Z,69.81
2023-11-01T11:01:55.038Z,69.95
2023-11-01T11:02:55.171Z,69.64
2023-11-01T11:03:55.212Z,69.95
2023-11-01T11:04:55.003Z,70.05
2023-11-01T11:05:55.118Z,70.45
2023-11-01T11:06:54.972Z,70.01
2023-11-01T11:07:54.962Z,70.45
2023-11-01T11:08:59.965Z,70.45
2023-11-01T11:09:54.954Z,70.35
2023-11-01T11:10:54.936Z,70.15
2023-11-01T11:11:54.927Z,70.15
2023-11-01T11:12:54.895Z,70.15
2023-11-01T11:13:54.887Z,70.25
2023-11-01T11:14:54.962Z,69.74
2023-11-01T11:15:54.904Z,70.25
2023-11-01T11:16:54.861Z,70.15
2023-11-01T11:17:54.885Z,70.76
2023-11-01T11:18:54.880Z,70.45
2023-11-01T11:19:59.857Z,70.15
2023-11-01T11:20:54.835Z,70.32
2023-11-01T11:21:54.900Z,70.05
2023-11-01T11:22:54.788Z,70.15
2023-11-01T11:23:54.840Z,70.21
2023-11-01T11:24:54.771Z,69.51
2023-11-01T11:25:54.796Z,69.92
2023-11-01T11:26:54.809Z,70.01
2023-11-01T11:27:54.748Z,70.08
2023-11-01T11:28:54.722Z,70.32
2023-11-01T11:29:54.726Z,69.71
2023-11-01T11:30:59.738Z,70.18
2023-11-01T11:31:54.725Z,69.81
2023-11-01T11:32:54.703Z,69.78
2023-11-01T11:33:54.699Z,69.78
2023-11-01T11:34:54.773Z,69.81
2023-11-01T11:35:54.643Z,69.98
2023-11-01T11:36:54.629Z,69.98
2023-11-01T11:37:54.616Z,70.39
2023-11-01T11:38:54.648Z,70.18
2023-11-01T11:39:54.634Z,69.88
2023-11-01T11:40:54.604Z,69.48
2023-11-01T11:41:59.627Z,69.57
2023-11-01T11:42:54.571Z,69.57
2023-11-01T11:43:54.580Z,69.17
2023-11-01T11:44:54.585Z,68.46
2023-11-01T11:45:54.547Z,69.57
2023-11-01T11:46:54.531Z,69.48
2023-11-01T11:47:54.547Z,69.37
2023-11-01T11:48:54.522Z,69.68
2023-11-01T11:49:54.494Z,69.78
2023-11-01T11:50:54.553Z,69.57
2023-11-01T11:51:54.530Z,69.57
2023-11-01T11:52:59.481Z,69.54
2023-11-01T11:53:54.457Z,69.57
2023-11-01T11:54:54.466Z,70.08
2023-11-01T11:55:54.494Z,70.36
2023-11-01T11:56:54.524Z,69.44
2023-11-01T11:57:54.422Z,68.43
2023-11-01T11:58:54.396Z,68.02
2023-11-01T11:59:54.398Z,68.63
2023-11-01T12:00:54.364Z,67.93
2023-11-01T12:01:54.415Z,67.82
2023-11-01T12:02:54.381Z,67.62
2023-11-01T12:03:59.687Z,67.32
2023-11-01T12:04:54.326Z,66.94
2023-11-01T12:05:54.339Z,67.01
2023-11-01T12:06:54.346Z,67.25
2023-11-01T12:07:54.305Z,67.52
2023-11-01T12:08:54.288Z,67.62
2023-11-01T12:09:54.296Z,66.74
2023-11-01T12:10:54.262Z,66.81
2023-11-01T12:11:54.317Z,66.71
2023-11-01T12:12:54.263Z,66.64
2023-11-01T12:13:54.228Z,67.22
2023-11-01T12:14:59.333Z,67.01
2023-11-01T12:15:54.211Z,67.42
2023-11-01T12:16:54.265Z,67.32
2023-11-01T12:17:54.219Z,67.11
2023-11-01T12:18:54.160Z,67.22
2023-11-01T12:19:54.160Z,67.65
2023-11-01T12:20:54.154Z,67.22
2023-11-01T12:21:54.186Z,66.91
2023-11-01T12:22:54.150Z,67.22
2023-11-01T12:23:54.147Z,67.93
2023-11-01T12:24:54.094Z,67.22
2023-11-01T12:25:59.102Z,67.11
2023-11-01T12:26:54.101Z,67.22
2023-11-01T12:27:54.116Z,67.82
2023-11-01T12:28:54.048Z,67.08
2023-11-01T12:29:54.104Z,67.59
2023-11-01T12:30:54.042Z,67.49
2023-11-01T12:31:54.029Z,66.47
2023-11-01T12:32:54.144Z,66.47
2023-11-01T12:33:54.076Z,66.58
2023-11-01T12:34:53.980Z,66.47
2023-11-01T12:35:53.982Z,66.98
2023-11-01T12:36:58.995Z,67.59
2023-11-01T12:37:53.945Z,66.58
2023-11-01T12:38:53.985Z,66.30
2023-11-01T12:39:53.976Z,66.47
2023-11-01T12:40:53.920Z,67.08
2023-11-01T12:41:53.949Z,66.67
2023-11-01T12:42:53.893Z,66.17
2023-11-01T12:43:53.897Z,66.98
2023-11-01T12:44:53.927Z,67.18
2023-11-01T12:45:53.890Z,67.29
2023-11-01T12:46:53.865Z,67.29
2023-11-01T12:47:59.048Z,66.88
2023-11-01T12:48:53.822Z,67.39
2023-11-01T12:49:53.817Z,66.67
2023-11-01T12:50:53.879Z,66.38
2023-11-01T12:51:53.823Z,66.44
2023-11-01T12:52:53.779Z,66.64
2023-11-01T12:53:53.804Z,66.14
2023-11-01T12:54:53.785Z,66.67
2023-11-01T12:55:53.756Z,67.25
2023-11-01T12:56:53.816Z,66.98
2023-11-01T12:57:53.739Z,66.98
2023-11-01T12:58:58.734Z,68.19
2023-11-01T12:59:53.708Z,66.98
2023-11-01T13:00:53.878Z,67.39
2023-11-01T13:01:53.676Z,67.29
2023-11-01T13:02:54.100Z,67.18
2023-11-01T13:03:53.813Z,67.89
2023-11-01T13:04:53.652Z,68.60
2023-11-01T13:05:53.663Z,67.69
2023-11-01T13:06:53.652Z,68.30
2023-11-01T13:07:53.637Z,67.89
2023-11-01T13:08:53.638Z,68.40
2023-11-01T13:09:58.649Z,67.89
2023-11-01T13:10:53.578Z,68.50
2023-11-01T13:11:53.577Z,68.40
2023-11-01T13:12:53.569Z,68.30
2023-11-01T13:13:53.554Z,68.19
2023-11-01T13:14:53.550Z,68.40
2023-11-01T13:15:53.580Z,69.10
2023-11-01T13:16:53.525Z,67.89
2023-11-01T13:17:53.593Z,67.99
2023-11-01T13:18:53.487Z,68.10
2023-11-01T13:19:55.320Z,68.40
2023-11-01T13:20:58.504Z,68.30
2023-11-01T13:21:53.479Z,68.30
2023-11-01T13:22:55.034Z,68.50
2023-11-01T13:23:53.507Z,68.40
2023-11-01T13:24:53.477Z,67.99
2023-11-01T13:25:53.430Z,68.10
2023-11-01T13:26:53.456Z,68.10
2023-11-01T13:27:53.409Z,68.19
2023-11-01T13:28:53.385Z,68.80
2023-11-01T13:29:53.504Z,68.50
2023-11-01T13:30:53.390Z,68.50
2023-11-01T13:31:58.359Z,68.80
2023-11-01T13:32:53.390Z,68.10
2023-11-01T13:33:53.411Z,69.01
2023-11-01T13:34:53.326Z,68.50
2023-11-01T13:35:53.339Z,69.10
2023-11-01T13:36:56.296Z,67.39
2023-11-01T13:37:53.274Z,68.40
2023-11-01T13:38:53.319Z,67.49
2023-11-01T13:39:53.270Z,68.10
2023-11-01T13:40:53.240Z,67.89
2023-11-01T13:41:53.344Z,67.59
2023-11-01T13:42:58.252Z,68.19
2023-11-01T13:43:53.220Z,67.89
2023-11-01T13:44:53.282Z,67.79
2023-11-01T13:45:53.200Z,68.40
2023-11-01T13:46:53.231Z,68.19
2023-11-01T13:47:53.255Z,67.99
2023-11-01T13:48:53.190Z,68.10
2023-11-01T13:49:53.140Z,67.99
2023-11-01T13:50:53.139Z,67.89
2023-11-01T13:51:53.133Z,69.10
2023-11-01T13:52:53.120Z,69.41
2023-11-01T13:53:58.144Z,68.90
2023-11-01T13:54:53.086Z,69.41
2023-11-01T13:55:53.077Z,68.80
2023-11-01T13:56:53.117Z,69.51
2023-11-01T13:57:53.104Z,69.51
2023-11-01T13:58:53.058Z,69.81
2023-11-01T13:59:53.078Z,69.24
2023-11-01T14:00:53.025Z,69.61
2023-11-01T14:01:53.012Z,69.61
2023-11-01T14:02:53.178Z,69.51
2023-11-01T14:03:53.167Z,69.81
2023-11-01T14:04:57.995Z,69.81
2023-11-01T14:05:52.999Z,69.92
2023-11-01T14:06:52.962Z,69.71
2023-11-01T14:07:52.945Z,70.25
2023-11-01T14:08:52.980Z,69.81
2023-11-01T14:09:52.913Z,70.12
2023-11-01T14:10:52.903Z,69.92
2023-11-01T14:11:53.470Z,70.02
2023-11-01T14:12:52.919Z,70.22
2023-11-01T14:13:52.889Z,69.92
2023-11-01T14:14:52.923Z,69.92
2023-11-01T14:15:57.917Z,70.22
2023-11-01T14:16:52.852Z,69.95
2023-11-01T14:17:52.885Z,70.32
2023-11-01T14:18:52.813Z,70.22
2023-11-01T14:19:52.802Z,70.25
2023-11-01T14:20:52.858Z,70.32
2023-11-01T14:21:52.796Z,70.25
2023-11-01T14:22:52.772Z,69.92
2023-11-01T14:23:52.790Z,70.25
2023-11-01T14:24:52.753Z,70.15
2023-11-01T14:25:52.745Z,70.25
2023-11-01T14:26:57.818Z,69.74
2023-11-01T14:27:52.726Z,69.51
2023-11-01T14:28:52.703Z,70.36
2023-11-01T14:29:52.718Z,69.74
2023-11-01T14:30:52.697Z,70.36
2023-11-01T14:31:52.670Z,70.15
2023-11-01T14:32:52.761Z,70.05
2023-11-01T14:33:52.733Z,70.65
2023-11-01T14:34:52.651Z,70.05
2023-11-01T14:35:52.674Z,70.25
2023-11-01T14:36:52.614Z,70.25
2023-11-01T14:38:00.148Z,70.25
2023-11-01T14:38:52.623Z,70.05
2023-11-01T14:39:52.595Z,70.65
2023-11-01T14:40:52.583Z,70.56
2023-11-01T14:41:52.582Z,70.65
2023-11-01T14:42:52.552Z,70.76
2023-11-01T14:43:52.537Z,70.65
2023-11-01T14:44:52.573Z,70.96
2023-11-01T14:45:52.597Z,70.65
2023-11-01T14:46:52.508Z,70.15
2023-11-01T14:47:52.546Z,70.36
2023-11-01T14:48:57.523Z,71.06
2023-11-01T14:49:52.476Z,71.37
2023-11-01T14:50:52.541Z,71.00
2023-11-01T14:51:52.447Z,70.96
2023-11-01T14:52:52.438Z,71.37
2023-11-01T14:53:52.461Z,71.50
2023-11-01T14:54:52.430Z,71.67
2023-11-01T14:55:52.401Z,70.56
2023-11-01T14:56:52.445Z,70.49
2023-11-01T14:57:52.380Z,71.00
2023-11-01T14:58:52.381Z,71.30
2023-11-01T14:59:57.415Z,71.60
2023-11-01T15:00:52.350Z,71.70
2023-11-01T15:01:52.406Z,72.41
2023-11-01T15:02:52.377Z,71.60
2023-11-01T15:03:52.384Z,71.70
2023-11-01T15:04:52.316Z,71.44
2023-11-01T15:05:52.314Z,70.59
2023-11-01T15:06:52.338Z,70.18
2023-11-01T15:07:52.264Z,70.59
2023-11-01T15:08:52.316Z,70.59
2023-11-01T15:09:52.251Z,70.18
2023-11-01T15:10:57.261Z,71.60
2023-11-01T15:11:52.273Z,69.88
2023-11-01T15:12:52.211Z,70.79
2023-11-01T15:13:52.212Z,70.69
2023-11-01T15:14:52.256Z,70.59
2023-11-01T15:15:52.186Z,70.49
2023-11-01T15:16:52.256Z,71.00
2023-11-01T15:17:52.202Z,70.39
2023-11-01T15:18:52.177Z,70.21
2023-11-01T15:19:52.133Z,70.18
2023-11-01T15:20:52.207Z,70.59
2023-11-01T15:21:57.153Z,70.12
2023-11-01T15:22:52.150Z,70.42
2023-11-01T15:23:52.133Z,70.32
2023-11-01T15:24:52.082Z,70.21
2023-11-01T15:25:52.090Z,70.42
2023-11-01T15:26:53.471Z,70.29
2023-11-01T15:27:52.058Z,70.29
2023-11-01T15:28:52.035Z,70.01
2023-11-01T15:29:52.084Z,70.32
2023-11-01T15:30:52.013Z,70.01
2023-11-01T15:31:51.998Z,69.71
2023-11-01T15:32:57.128Z,70.42
2023-11-01T15:33:52.018Z,70.32
2023-11-01T15:34:51.980Z,69.92
2023-11-01T15:35:51.991Z,69.61
2023-11-01T15:36:52.241Z,69.10
2023-11-01T15:37:52.017Z,69.51
2023-11-01T15:38:51.989Z,69.20
2023-11-01T15:39:51.908Z,68.70
2023-11-01T15:40:51.918Z,68.40
2023-11-01T15:41:51.930Z,68.80
2023-11-01T15:42:51.888Z,69.00
2023-11-01T15:43:56.898Z,68.80
2023-11-01T15:44:51.895Z,69.20
2023-11-01T15:45:51.871Z,69.41
2023-11-01T15:46:51.846Z,68.80
2023-11-01T15:47:51.844Z,69.54
2023-11-01T15:48:51.830Z,68.80
2023-11-01T15:49:51.802Z,69.00
2023-11-01T15:50:51.829Z,68.43
2023-11-01T15:51:51.792Z,69.51
2023-11-01T15:52:51.768Z,69.51
2023-11-01T15:53:51.818Z,69.34
2023-11-01T15:54:56.764Z,69.74
2023-11-01T15:55:51.740Z,68.93
2023-11-01T15:56:51.768Z,70.35
2023-11-01T15:57:51.712Z,68.52
2023-11-01T15:58:51.708Z,69.34
2023-11-01T15:59:51.745Z,69.54
2023-11-01T16:00:51.684Z,69.34
2023-11-01T16:01:51.692Z,69.03
2023-11-01T16:02:51.869Z,69.74
2023-11-01T16:03:51.790Z,69.34
2023-11-01T16:04:51.737Z,68.83
2023-11-01T16:05:56.714Z,68.52
2023-11-01T16:06:51.610Z,68.43
2023-11-01T16:07:51.606Z,69.24
2023-11-01T16:08:51.699Z,69.54
2023-11-01T16:09:51.579Z,69.44
2023-11-01T16:10:51.573Z,69.64
2023-11-01T16:11:51.572Z,69.92
2023-11-01T16:12:51.561Z,69.95
2023-11-01T16:13:52.086Z,69.54
2023-11-01T16:14:51.567Z,70.25
2023-11-01T16:15:51.535Z,69.95
2023-11-01T16:16:56.523Z,69.44
2023-11-01T16:17:51.616Z,69.95
2023-11-01T16:18:51.501Z,69.54
2023-11-01T16:19:51.512Z,70.25
2023-11-01T16:20:51.487Z,70.45
2023-11-01T16:21:51.447Z,70.35
2023-11-01T16:22:51.449Z,69.44
2023-11-01T16:23:51.432Z,70.25
2023-11-01T16:24:51.423Z,69.74
2023-11-01T16:25:51.399Z,70.35
2023-11-01T16:26:51.457Z,70.05
2023-11-01T16:27:56.397Z,70.25
2023-11-01T16:28:51.374Z,69.95
2023-11-01T16:29:51.430Z,69.84
2023-11-01T16:30:51.415Z,70.45
2023-11-01T16:31:51.379Z,70.25
2023-11-01T16:32:55.126Z,70.39
2023-11-01T16:33:51.370Z,70.08
2023-11-01T16:34:51.305Z,70.45
2023-11-01T16:35:51.320Z,70.15
2023-11-01T16:36:51.292Z,70.15
2023-11-01T16:37:51.277Z,70.28
2023-11-01T16:38:56.366Z,70.35
2023-11-01T16:39:51.234Z,70.18
2023-11-01T16:40:51.223Z,70.56
2023-11-01T16:41:51.251Z,70.69
2023-11-01T16:42:51.200Z,70.69
2023-11-01T16:43:51.200Z,70.56
2023-11-01T16:44:51.205Z,70.08
2023-11-01T16:45:51.179Z,70.79
2023-11-01T16:46:51.155Z,70.05
2023-11-01T16:47:51.205Z,69.98
2023-11-01T16:48:51.141Z,69.98
2023-11-01T16:49:56.148Z,70.79
2023-11-01T16:50:51.171Z,70.89
2023-11-01T16:51:51.094Z,70.79
2023-11-01T16:52:51.119Z,70.79
2023-11-01T16:53:51.096Z,70.56
2023-11-01T16:54:51.080Z,70.18
2023-11-01T16:55:51.052Z,69.95
2023-11-01T16:56:51.081Z,70.56
2023-11-01T16:57:51.051Z,70.39
2023-11-01T16:58:51.021Z,70.18
2023-11-01T16:59:51.054Z,70.48
2023-11-01T17:00:56.017Z,70.18
2023-11-01T17:01:51.012Z,70.39
2023-11-01T17:02:51.343Z,70.79
2023-11-01T17:03:53.547Z,70.48
2023-11-01T17:04:50.998Z,69.98
2023-11-01T17:05:50.952Z,70.45
2023-11-01T17:06:51.004Z,70.48
2023-11-01T17:07:50.926Z,70.35
2023-11-01T17:08:50.995Z,70.45
2023-11-01T17:09:50.896Z,70.25
2023-11-01T17:10:50.886Z,70.18
2023-11-01T17:11:55.936Z,70.25
2023-11-01T17:12:50.895Z,70.35
2023-11-01T17:13:50.850Z,70.05
2023-11-01T17:14:50.874Z,70.39
2023-11-01T17:15:50.892Z,70.69
2023-11-01T17:16:50.824Z,70.79
2023-11-01T17:17:50.864Z,71.70
2023-11-01T17:18:50.874Z,71.60
2023-11-01T17:19:50.784Z,70.48
2023-11-01T17:20:50.814Z,70.48
2023-11-01T17:21:50.779Z,70.69
2023-11-01T17:22:55.769Z,70.59
2023-11-01T17:23:50.791Z,71.00
2023-11-01T17:24:50.746Z,70.89
2023-11-01T17:25:50.735Z,70.69
2023-11-01T17:26:50.736Z,70.79
2023-11-01T17:27:50.691Z,70.39
2023-11-01T17:28:50.687Z,70.52
2023-11-01T17:29:50.683Z,70.48
2023-11-01T17:30:50.667Z,70.83
2023-11-01T17:31:50.699Z,71.73
2023-11-01T17:32:50.703Z,71.73
2023-11-01T17:33:55.658Z,71.13
2023-11-01T17:34:50.622Z,70.62
2023-11-01T17:35:50.641Z,70.52
2023-11-01T17:36:50.604Z,70.32
2023-11-01T17:37:51.545Z,70.11
2023-11-01T17:38:50.639Z,70.62
2023-11-01T17:39:50.564Z,70.72
2023-11-01T17:40:50.560Z,70.52
2023-11-01T17:41:50.669Z,71.13
2023-11-01T17:42:50.521Z,72.04
2023-11-01T17:43:50.512Z,72.34
2023-11-01T17:44:55.596Z,73.06
2023-11-01T17:45:50.499Z,73.87
2023-11-01T17:46:50.472Z,75.79
2023-11-01T17:47:50.571Z,77.56
2023-11-01T17:48:50.461Z,79.28
2023-11-01T17:49:50.452Z,79.02
2023-11-01T17:50:50.546Z,80.94
2023-11-01T17:51:50.418Z,81.29
2023-11-01T17:52:50.406Z,82.65
2023-11-01T17:53:50.445Z,82.85
2023-11-01T17:54:50.381Z,83.29
2023-11-01T17:55:55.413Z,83.50
2023-11-01T17:56:50.469Z,84.31
2023-11-01T17:57:50.377Z,85.43
2023-11-01T17:58:50.350Z,85.74
2023-11-01T17:59:50.536Z,86.39
2023-11-01T18:00:50.424Z,85.78
2023-11-01T18:01:50.338Z,86.39
2023-11-01T18:02:50.419Z,86.83
2023-11-01T18:03:50.500Z,87.45
2023-11-01T18:04:50.280Z,87.65
2023-11-01T18:05:50.320Z,88.06
2023-11-01T18:06:55.275Z,87.65
2023-11-01T18:07:50.259Z,88.26
2023-11-01T18:08:50.313Z,88.67
2023-11-01T18:09:50.224Z,87.96
2023-11-01T18:10:50.215Z,88.57
2023-11-01T18:11:50.261Z,88.98
2023-11-01T18:12:50.197Z,88.77
2023-11-01T18:13:50.179Z,88.67
2023-11-01T18:14:52.218Z,89.42
2023-11-01T18:15:50.163Z,89.12
2023-11-01T18:16:50.177Z,89.28
2023-11-01T18:17:55.208Z,89.63
2023-11-01T18:18:50.125Z,89.69
2023-11-01T18:19:50.117Z,89.48
2023-11-01T18:20:50.167Z,88.81
2023-11-01T18:21:50.097Z,88.92
2023-11-01T18:22:50.075Z,89.22
2023-11-01T18:23:50.090Z,89.32
2023-11-01T18:24:50.055Z,89.63
2023-11-01T18:25:50.042Z,89.42
2023-11-01T18:26:50.111Z,89.18
2023-11-01T18:27:50.041Z,89.99
2023-11-01T18:28:55.043Z,90.09
2023-11-01T18:29:50.015Z,89.48
2023-11-01T18:30:50.009Z,89.73
2023-11-01T18:31:49.991Z,90.44
2023-11-01T18:32:50.048Z,90.55
2023-11-01T18:33:49.964Z,90.24
2023-11-01T18:34:49.949Z,90.55
2023-11-01T18:35:49.960Z,89.94
2023-11-01T18:36:49.932Z,89.73
2023-11-01T18:37:49.912Z,90.14
2023-11-01T18:38:49.979Z,90.09
2023-11-01T18:39:54.923Z,88.98
2023-11-01T18:40:49.887Z,89.94
2023-11-01T18:41:49.884Z,89.79
2023-11-01T18:42:49.854Z,89.01
2023-11-01T18:43:49.868Z,89.12
2023-11-01T18:44:49.879Z,90.03
2023-11-01T18:45:49.850Z,89.53
2023-11-01T18:46:49.811Z,89.12
2023-11-01T18:47:49.865Z,89.63
2023-11-01T18:48:49.784Z,90.75
2023-11-01T18:49:49.774Z,90.44
2023-11-01T18:50:54.839Z,90.24
2023-11-01T18:51:49.759Z,90.34
2023-11-01T18:52:49.738Z,90.44